sensor_id;sensor_type;location;lat;lon;timestamp;P1;durP1;ratioP1;P2;durP2;ratioP2
7919;SDS011;18778;47.610;9.776;2024-01-25T00:01:41;2.43;;;2.33;;
7919;SDS011;18778;47.610;9.776;2024-01-25T00:04:07;3.07;;;2.30;;
7919;SDS011;18778;47.610;9.776;2024-01-25T00:06:33;2.30;;;2.10;;
7919;SDS011;18778;47.610;9.776;2024-01-25T00:08:59;2.30;;;2.10;;
7919;SDS011;18778;47.610;9.776;2024-01-25T00:11:26;2.40;;;2.20;;
7919;SDS011;18778;47.610;9.776;2024-01-25T00:13:51;2.60;;;2.40;;
7919;SDS011;18778;47.610;9.776;2024-01-25T00:16:17;2.10;;;2.00;;
7919;SDS011;18778;47.610;9.776;2024-01-25T00:18:43;2.33;;;2.17;;
7919;SDS011;18778;47.610;9.776;2024-01-25T00:21:08;2.73;;;2.50;;
7919;SDS011;18778;47.610;9.776;2024-01-25T00:23:35;2.30;;;2.20;;
7919;SDS011;18778;47.610;9.776;2024-01-25T00:26:01;3.80;;;2.50;;
7919;SDS011;18778;47.610;9.776;2024-01-25T00:28:27;2.87;;;2.67;;
7919;SDS011;18778;47.610;9.776;2024-01-25T00:30:53;4.67;;;3.30;;
7919;SDS011;18778;47.610;9.776;2024-01-25T00:33:19;3.50;;;3.30;;
7919;SDS011;18778;47.610;9.776;2024-01-25T00:35:45;3.70;;;3.40;;
7919;SDS011;18778;47.610;9.776;2024-01-25T00:38:11;4.37;;;4.00;;
7919;SDS011;18778;47.610;9.776;2024-01-25T00:40:37;4.33;;;3.93;;
7919;SDS011;18778;47.610;9.776;2024-01-25T00:43:02;4.50;;;4.10;;
7919;SDS011;18778;47.610;9.776;2024-01-25T00:45:28;4.47;;;4.07;;
7919;SDS011;18778;47.610;9.776;2024-01-25T00:47:54;5.40;;;4.10;;
7919;SDS011;18778;47.610;9.776;2024-01-25T00:50:20;5.97;;;4.40;;
7919;SDS011;18778;47.610;9.776;2024-01-25T00:52:48;4.93;;;4.53;;
7919;SDS011;18778;47.610;9.776;2024-01-25T00:55:15;5.83;;;4.33;;
7919;SDS011;18778;47.610;9.776;2024-01-25T00:57:41;4.90;;;4.40;;
7919;SDS011;18778;47.610;9.776;2024-01-25T01:00:07;4.63;;;3.77;;
7919;SDS011;18778;47.610;9.776;2024-01-25T01:02:35;5.03;;;4.47;;
7919;SDS011;18778;47.610;9.776;2024-01-25T01:05:03;5.17;;;3.83;;
7919;SDS011;18778;47.610;9.776;2024-01-25T01:07:29;3.73;;;3.43;;
7919;SDS011;18778;47.610;9.776;2024-01-25T01:09:55;6.30;;;4.10;;
7919;SDS011;18778;47.610;9.776;2024-01-25T01:12:20;5.03;;;3.77;;
7919;SDS011;18778;47.610;9.776;2024-01-25T01:14:46;6.53;;;3.77;;
7919;SDS011;18778;47.610;9.776;2024-01-25T01:17:12;7.00;;;3.90;;
7919;SDS011;18778;47.610;9.776;2024-01-25T01:19:37;7.10;;;4.70;;
7919;SDS011;18778;47.610;9.776;2024-01-25T01:22:03;5.13;;;4.50;;
7919;SDS011;18778;47.610;9.776;2024-01-25T01:24:28;6.20;;;4.10;;
7919;SDS011;18778;47.610;9.776;2024-01-25T01:26:54;4.70;;;3.63;;
7919;SDS011;18778;47.610;9.776;2024-01-25T01:29:19;7.30;;;4.10;;
7919;SDS011;18778;47.610;9.776;2024-01-25T01:31:45;5.73;;;4.00;;
7919;SDS011;18778;47.610;9.776;2024-01-25T01:34:11;4.50;;;3.63;;
7919;SDS011;18778;47.610;9.776;2024-01-25T01:36:38;5.33;;;4.00;;
7919;SDS011;18778;47.610;9.776;2024-01-25T01:39:04;3.83;;;3.53;;
7919;SDS011;18778;47.610;9.776;2024-01-25T01:41:31;3.90;;;3.60;;
7919;SDS011;18778;47.610;9.776;2024-01-25T01:43:56;3.97;;;3.20;;
7919;SDS011;18778;47.610;9.776;2024-01-25T01:46:32;4.00;;;3.70;;
7919;SDS011;18778;47.610;9.776;2024-01-25T01:49:00;4.30;;;3.60;;
7919;SDS011;18778;47.610;9.776;2024-01-25T01:51:26;4.97;;;3.33;;
7919;SDS011;18778;47.610;9.776;2024-01-25T01:53:53;5.33;;;2.83;;
7919;SDS011;18778;47.610;9.776;2024-01-25T01:56:19;3.47;;;3.07;;
7919;SDS011;18778;47.610;9.776;2024-01-25T01:58:45;3.93;;;3.30;;
7919;SDS011;18778;47.610;9.776;2024-01-25T02:01:13;4.90;;;3.20;;
7919;SDS011;18778;47.610;9.776;2024-01-25T02:03:39;2.93;;;2.63;;
7919;SDS011;18778;47.610;9.776;2024-01-25T02:06:08;3.10;;;2.87;;
7919;SDS011;18778;47.610;9.776;2024-01-25T02:09:16;3.40;;;2.60;;
7919;SDS011;18778;47.610;9.776;2024-01-25T02:12:05;3.50;;;2.57;;
7919;SDS011;18778;47.610;9.776;2024-01-25T02:14:34;5.53;;;2.17;;
7919;SDS011;18778;47.610;9.776;2024-01-25T02:17:00;2.40;;;2.20;;
7919;SDS011;18778;47.610;9.776;2024-01-25T02:19:26;2.20;;;2.00;;
7919;SDS011;18778;47.610;9.776;2024-01-25T02:22:01;1.93;;;1.83;;
7919;SDS011;18778;47.610;9.776;2024-01-25T02:24:29;2.20;;;1.73;;
7919;SDS011;18778;47.610;9.776;2024-01-25T02:27:09;2.20;;;1.70;;
7919;SDS011;18778;47.610;9.776;2024-01-25T02:29:37;3.37;;;1.67;;
7919;SDS011;18778;47.610;9.776;2024-01-25T02:32:04;4.03;;;1.90;;
7919;SDS011;18778;47.610;9.776;2024-01-25T02:34:39;3.80;;;1.83;;
7919;SDS011;18778;47.610;9.776;2024-01-25T02:37:05;3.80;;;1.97;;
7919;SDS011;18778;47.610;9.776;2024-01-25T02:39:34;5.37;;;1.77;;
7919;SDS011;18778;47.610;9.776;2024-01-25T02:42:02;2.10;;;1.73;;
7919;SDS011;18778;47.610;9.776;2024-01-25T02:44:28;3.17;;;1.50;;
7919;SDS011;18778;47.610;9.776;2024-01-25T02:46:54;6.90;;;1.93;;
7919;SDS011;18778;47.610;9.776;2024-01-25T02:49:20;3.37;;;2.00;;
7919;SDS011;18778;47.610;9.776;2024-01-25T02:51:49;3.87;;;1.93;;
7919;SDS011;18778;47.610;9.776;2024-01-25T02:54:15;4.90;;;1.67;;
7919;SDS011;18778;47.610;9.776;2024-01-25T02:56:41;5.27;;;2.10;;
7919;SDS011;18778;47.610;9.776;2024-01-25T02:59:31;4.47;;;2.00;;
7919;SDS011;18778;47.610;9.776;2024-01-25T03:01:57;5.07;;;2.07;;
7919;SDS011;18778;47.610;9.776;2024-01-25T03:04:23;3.63;;;2.10;;
7919;SDS011;18778;47.610;9.776;2024-01-25T03:06:48;3.57;;;2.00;;
7919;SDS011;18778;47.610;9.776;2024-01-25T03:09:14;7.87;;;2.07;;
7919;SDS011;18778;47.610;9.776;2024-01-25T03:11:40;3.83;;;1.90;;
7919;SDS011;18778;47.610;9.776;2024-01-25T03:14:05;3.77;;;1.67;;
7919;SDS011;18778;47.610;9.776;2024-01-25T03:16:31;5.90;;;2.40;;
7919;SDS011;18778;47.610;9.776;2024-01-25T03:18:56;6.43;;;2.17;;
7919;SDS011;18778;47.610;9.776;2024-01-25T03:21:22;5.43;;;2.27;;
7919;SDS011;18778;47.610;9.776;2024-01-25T03:23:48;6.70;;;2.80;;
7919;SDS011;18778;47.610;9.776;2024-01-25T03:26:14;6.30;;;2.00;;
7919;SDS011;18778;47.610;9.776;2024-01-25T03:28:39;7.30;;;2.53;;
7919;SDS011;18778;47.610;9.776;2024-01-25T03:31:05;5.37;;;2.30;;
7919;SDS011;18778;47.610;9.776;2024-01-25T03:33:31;2.40;;;2.20;;
7919;SDS011;18778;47.610;9.776;2024-01-25T03:36:01;8.70;;;3.00;;
7919;SDS011;18778;47.610;9.776;2024-01-25T03:38:27;6.70;;;3.00;;
7919;SDS011;18778;47.610;9.776;2024-01-25T03:40:53;5.73;;;3.07;;
7919;SDS011;18778;47.610;9.776;2024-01-25T03:43:19;5.70;;;3.20;;
7919;SDS011;18778;47.610;9.776;2024-01-25T03:45:45;6.77;;;2.80;;
7919;SDS011;18778;47.610;9.776;2024-01-25T03:48:11;6.10;;;3.10;;
7919;SDS011;18778;47.610;9.776;2024-01-25T03:50:37;8.40;;;2.90;;
7919;SDS011;18778;47.610;9.776;2024-01-25T03:53:03;5.83;;;2.60;;
7919;SDS011;18778;47.610;9.776;2024-01-25T03:55:31;7.17;;;2.87;;
7919;SDS011;18778;47.610;9.776;2024-01-25T03:57:57;4.83;;;3.03;;
7919;SDS011;18778;47.610;9.776;2024-01-25T04:00:22;4.03;;;2.70;;
7919;SDS011;18778;47.610;9.776;2024-01-25T04:02:48;3.83;;;3.10;;
7919;SDS011;18778;47.610;9.776;2024-01-25T04:05:14;7.47;;;2.80;;
7919;SDS011;18778;47.610;9.776;2024-01-25T04:07:39;4.80;;;2.60;;
7919;SDS011;18778;47.610;9.776;2024-01-25T04:10:05;6.53;;;2.70;;
7919;SDS011;18778;47.610;9.776;2024-01-25T04:12:31;6.27;;;2.10;;
7919;SDS011;18778;47.610;9.776;2024-01-25T04:14:58;2.50;;;2.03;;
7919;SDS011;18778;47.610;9.776;2024-01-25T04:17:23;1.87;;;1.57;;
7919;SDS011;18778;47.610;9.776;2024-01-25T04:19:49;2.60;;;1.63;;
7919;SDS011;18778;47.610;9.776;2024-01-25T04:22:14;3.23;;;2.00;;
7919;SDS011;18778;47.610;9.776;2024-01-25T04:24:40;2.70;;;2.50;;
7919;SDS011;18778;47.610;9.776;2024-01-25T04:27:06;3.90;;;2.00;;
7919;SDS011;18778;47.610;9.776;2024-01-25T04:29:31;2.70;;;1.83;;
7919;SDS011;18778;47.610;9.776;2024-01-25T04:31:57;1.70;;;1.60;;
7919;SDS011;18778;47.610;9.776;2024-01-25T04:34:22;1.67;;;1.57;;
7919;SDS011;18778;47.610;9.776;2024-01-25T04:36:48;2.53;;;1.80;;
7919;SDS011;18778;47.610;9.776;2024-01-25T04:39:13;1.10;;;1.10;;
7919;SDS011;18778;47.610;9.776;2024-01-25T04:41:39;1.63;;;1.53;;
7919;SDS011;18778;47.610;9.776;2024-01-25T04:44:04;3.30;;;3.00;;
7919;SDS011;18778;47.610;9.776;2024-01-25T04:46:30;2.40;;;2.00;;
7919;SDS011;18778;47.610;9.776;2024-01-25T04:49:01;1.80;;;1.70;;
7919;SDS011;18778;47.610;9.776;2024-01-25T04:51:27;2.73;;;2.53;;
7919;SDS011;18778;47.610;9.776;2024-01-25T04:53:53;2.20;;;2.10;;
7919;SDS011;18778;47.610;9.776;2024-01-25T04:56:19;2.60;;;2.30;;
7919;SDS011;18778;47.610;9.776;2024-01-25T04:58:44;3.40;;;1.90;;
7919;SDS011;18778;47.610;9.776;2024-01-25T05:01:10;2.07;;;1.73;;
7919;SDS011;18778;47.610;9.776;2024-01-25T05:03:36;2.37;;;1.57;;
7919;SDS011;18778;47.610;9.776;2024-01-25T05:06:02;3.43;;;2.20;;
7919;SDS011;18778;47.610;9.776;2024-01-25T05:08:28;1.90;;;1.80;;
7919;SDS011;18778;47.610;9.776;2024-01-25T05:10:53;1.70;;;1.60;;
7919;SDS011;18778;47.610;9.776;2024-01-25T05:13:19;3.47;;;1.63;;
7919;SDS011;18778;47.610;9.776;2024-01-25T05:15:44;3.60;;;2.10;;
7919;SDS011;18778;47.610;9.776;2024-01-25T05:18:10;2.83;;;1.90;;
7919;SDS011;18778;47.610;9.776;2024-01-25T05:20:36;6.30;;;2.13;;
7919;SDS011;18778;47.610;9.776;2024-01-25T05:23:03;2.83;;;1.77;;
7919;SDS011;18778;47.610;9.776;2024-01-25T05:25:29;4.00;;;1.80;;
7919;SDS011;18778;47.610;9.776;2024-01-25T05:27:55;2.67;;;1.70;;
7919;SDS011;18778;47.610;9.776;2024-01-25T05:30:22;3.83;;;1.63;;
7919;SDS011;18778;47.610;9.776;2024-01-25T05:32:48;5.63;;;2.77;;
7919;SDS011;18778;47.610;9.776;2024-01-25T05:35:14;2.50;;;1.60;;
7919;SDS011;18778;47.610;9.776;2024-01-25T05:37:40;2.67;;;1.90;;
7919;SDS011;18778;47.610;9.776;2024-01-25T05:40:08;3.00;;;2.70;;
7919;SDS011;18778;47.610;9.776;2024-01-25T05:42:34;4.97;;;2.60;;
7919;SDS011;18778;47.610;9.776;2024-01-25T05:45:01;4.30;;;2.30;;
7919;SDS011;18778;47.610;9.776;2024-01-25T05:47:28;4.57;;;2.80;;
7919;SDS011;18778;47.610;9.776;2024-01-25T05:49:54;7.53;;;3.27;;
7919;SDS011;18778;47.610;9.776;2024-01-25T05:52:20;7.17;;;3.17;;
7919;SDS011;18778;47.610;9.776;2024-01-25T05:54:46;13.97;;;7.93;;
7919;SDS011;18778;47.610;9.776;2024-01-25T05:57:12;13.93;;;6.87;;
7919;SDS011;18778;47.610;9.776;2024-01-25T05:59:38;13.10;;;7.37;;
7919;SDS011;18778;47.610;9.776;2024-01-25T06:02:04;12.57;;;7.70;;
7919;SDS011;18778;47.610;9.776;2024-01-25T06:04:30;10.40;;;6.77;;
7919;SDS011;18778;47.610;9.776;2024-01-25T06:06:56;13.77;;;8.47;;
7919;SDS011;18778;47.610;9.776;2024-01-25T06:09:21;11.23;;;5.70;;
7919;SDS011;18778;47.610;9.776;2024-01-25T06:11:49;19.63;;;11.20;;
7919;SDS011;18778;47.610;9.776;2024-01-25T06:14:15;13.67;;;10.17;;
7919;SDS011;18778;47.610;9.776;2024-01-25T06:16:40;12.93;;;9.07;;
7919;SDS011;18778;47.610;9.776;2024-01-25T06:19:06;15.30;;;11.67;;
7919;SDS011;18778;47.610;9.776;2024-01-25T06:21:32;15.60;;;8.60;;
7919;SDS011;18778;47.610;9.776;2024-01-25T06:24:00;13.70;;;10.40;;
7919;SDS011;18778;47.610;9.776;2024-01-25T06:26:32;14.07;;;7.10;;
7919;SDS011;18778;47.610;9.776;2024-01-25T06:28:57;10.43;;;6.10;;
7919;SDS011;18778;47.610;9.776;2024-01-25T06:31:26;9.67;;;5.57;;
7919;SDS011;18778;47.610;9.776;2024-01-25T06:33:52;14.63;;;6.13;;
7919;SDS011;18778;47.610;9.776;2024-01-25T06:36:20;9.23;;;7.00;;
7919;SDS011;18778;47.610;9.776;2024-01-25T06:38:47;13.53;;;7.00;;
7919;SDS011;18778;47.610;9.776;2024-01-25T06:41:12;7.97;;;5.60;;
7919;SDS011;18778;47.610;9.776;2024-01-25T06:43:39;7.90;;;5.60;;
7919;SDS011;18778;47.610;9.776;2024-01-25T06:46:05;9.43;;;4.87;;
7919;SDS011;18778;47.610;9.776;2024-01-25T06:48:31;8.77;;;4.23;;
7919;SDS011;18778;47.610;9.776;2024-01-25T06:50:57;4.83;;;4.20;;
7919;SDS011;18778;47.610;9.776;2024-01-25T06:53:23;10.50;;;5.67;;
7919;SDS011;18778;47.610;9.776;2024-01-25T06:55:49;6.77;;;4.63;;
7919;SDS011;18778;47.610;9.776;2024-01-25T06:58:14;6.13;;;4.33;;
7919;SDS011;18778;47.610;9.776;2024-01-25T07:00:40;9.67;;;6.03;;
7919;SDS011;18778;47.610;9.776;2024-01-25T07:03:07;10.47;;;6.40;;
7919;SDS011;18778;47.610;9.776;2024-01-25T07:05:33;6.20;;;5.50;;
7919;SDS011;18778;47.610;9.776;2024-01-25T07:08:00;7.03;;;4.23;;
7919;SDS011;18778;47.610;9.776;2024-01-25T07:10:26;6.67;;;4.73;;
7919;SDS011;18778;47.610;9.776;2024-01-25T07:12:52;8.60;;;5.47;;
7919;SDS011;18778;47.610;9.776;2024-01-25T07:15:18;19.87;;;10.43;;
7919;SDS011;18778;47.610;9.776;2024-01-25T07:17:44;37.23;;;15.70;;
7919;SDS011;18778;47.610;9.776;2024-01-25T07:20:10;43.60;;;16.10;;
7919;SDS011;18778;47.610;9.776;2024-01-25T07:22:36;7.90;;;5.23;;
7919;SDS011;18778;47.610;9.776;2024-01-25T07:25:01;9.93;;;5.00;;
7919;SDS011;18778;47.610;9.776;2024-01-25T07:27:27;6.80;;;4.90;;
7919;SDS011;18778;47.610;9.776;2024-01-25T07:29:53;24.33;;;11.20;;
7919;SDS011;18778;47.610;9.776;2024-01-25T07:32:19;27.40;;;17.60;;
7919;SDS011;18778;47.610;9.776;2024-01-25T07:34:45;29.00;;;15.23;;
7919;SDS011;18778;47.610;9.776;2024-01-25T07:37:11;10.43;;;6.13;;
7919;SDS011;18778;47.610;9.776;2024-01-25T07:39:37;19.07;;;12.13;;
7919;SDS011;18778;47.610;9.776;2024-01-25T07:42:03;9.27;;;6.20;;
7919;SDS011;18778;47.610;9.776;2024-01-25T07:44:29;18.20;;;13.00;;
7919;SDS011;18778;47.610;9.776;2024-01-25T07:46:54;13.00;;;8.97;;
7919;SDS011;18778;47.610;9.776;2024-01-25T07:49:20;8.77;;;5.97;;
7919;SDS011;18778;47.610;9.776;2024-01-25T07:51:46;22.57;;;13.63;;
7919;SDS011;18778;47.610;9.776;2024-01-25T07:54:12;22.77;;;13.63;;
7919;SDS011;18778;47.610;9.776;2024-01-25T07:56:37;10.47;;;6.60;;
7919;SDS011;18778;47.610;9.776;2024-01-25T07:59:03;6.47;;;4.30;;
7919;SDS011;18778;47.610;9.776;2024-01-25T08:01:29;7.80;;;3.60;;
7919;SDS011;18778;47.610;9.776;2024-01-25T08:03:54;5.20;;;3.57;;
7919;SDS011;18778;47.610;9.776;2024-01-25T08:06:20;4.37;;;2.57;;
7919;SDS011;18778;47.610;9.776;2024-01-25T08:08:46;3.93;;;2.70;;
7919;SDS011;18778;47.610;9.776;2024-01-25T08:11:11;2.80;;;2.60;;
7919;SDS011;18778;47.610;9.776;2024-01-25T08:13:37;8.07;;;5.30;;
7919;SDS011;18778;47.610;9.776;2024-01-25T08:16:03;19.77;;;8.73;;
7919;SDS011;18778;47.610;9.776;2024-01-25T08:18:28;13.17;;;5.80;;
7919;SDS011;18778;47.610;9.776;2024-01-25T08:20:55;4.90;;;3.40;;
7919;SDS011;18778;47.610;9.776;2024-01-25T08:23:21;6.97;;;3.10;;
7919;SDS011;18778;47.610;9.776;2024-01-25T08:25:46;17.00;;;8.40;;
7919;SDS011;18778;47.610;9.776;2024-01-25T08:28:12;20.43;;;10.47;;
7919;SDS011;18778;47.610;9.776;2024-01-25T08:30:38;44.43;;;17.83;;
7919;SDS011;18778;47.610;9.776;2024-01-25T08:33:03;26.90;;;11.37;;
7919;SDS011;18778;47.610;9.776;2024-01-25T08:35:29;12.87;;;6.97;;
7919;SDS011;18778;47.610;9.776;2024-01-25T08:37:55;12.43;;;5.50;;
7919;SDS011;18778;47.610;9.776;2024-01-25T08:40:21;3.40;;;2.70;;
7919;SDS011;18778;47.610;9.776;2024-01-25T08:42:46;6.50;;;3.00;;
7919;SDS011;18778;47.610;9.776;2024-01-25T08:45:12;10.17;;;7.03;;
7919;SDS011;18778;47.610;9.776;2024-01-25T08:47:38;18.03;;;12.97;;
7919;SDS011;18778;47.610;9.776;2024-01-25T08:50:04;16.10;;;12.30;;
7919;SDS011;18778;47.610;9.776;2024-01-25T08:52:35;47.10;;;20.93;;
7919;SDS011;18778;47.610;9.776;2024-01-25T08:55:05;44.17;;;17.93;;
7919;SDS011;18778;47.610;9.776;2024-01-25T08:57:31;25.70;;;11.53;;
7919;SDS011;18778;47.610;9.776;2024-01-25T08:59:57;12.63;;;5.50;;
7919;SDS011;18778;47.610;9.776;2024-01-25T09:02:26;15.07;;;6.60;;
7919;SDS011;18778;47.610;9.776;2024-01-25T09:04:54;42.07;;;17.50;;
7919;SDS011;18778;47.610;9.776;2024-01-25T09:07:20;21.30;;;9.63;;
7919;SDS011;18778;47.610;9.776;2024-01-25T09:09:46;10.73;;;6.10;;
7919;SDS011;18778;47.610;9.776;2024-01-25T09:12:11;9.53;;;5.60;;
7919;SDS011;18778;47.610;9.776;2024-01-25T09:14:38;6.47;;;4.17;;
7919;SDS011;18778;47.610;9.776;2024-01-25T09:17:04;15.03;;;7.40;;
7919;SDS011;18778;47.610;9.776;2024-01-25T09:19:30;9.97;;;6.33;;
7919;SDS011;18778;47.610;9.776;2024-01-25T09:21:56;34.53;;;14.63;;
7919;SDS011;18778;47.610;9.776;2024-01-25T09:24:24;14.60;;;8.17;;
7919;SDS011;18778;47.610;9.776;2024-01-25T09:26:50;4.70;;;4.10;;
7919;SDS011;18778;47.610;9.776;2024-01-25T09:29:16;5.27;;;4.37;;
7919;SDS011;18778;47.610;9.776;2024-01-25T09:31:41;19.90;;;9.90;;
7919;SDS011;18778;47.610;9.776;2024-01-25T09:34:07;24.27;;;9.83;;
7919;SDS011;18778;47.610;9.776;2024-01-25T09:36:32;20.00;;;9.00;;
7919;SDS011;18778;47.610;9.776;2024-01-25T09:38:58;15.63;;;6.37;;
7919;SDS011;18778;47.610;9.776;2024-01-25T09:41:23;38.17;;;13.17;;
7919;SDS011;18778;47.610;9.776;2024-01-25T09:43:49;18.83;;;8.23;;
7919;SDS011;18778;47.610;9.776;2024-01-25T09:46:14;22.13;;;9.10;;
7919;SDS011;18778;47.610;9.776;2024-01-25T09:48:41;24.07;;;12.20;;
7919;SDS011;18778;47.610;9.776;2024-01-25T09:51:09;9.17;;;6.57;;
7919;SDS011;18778;47.610;9.776;2024-01-25T09:53:36;4.70;;;4.30;;
7919;SDS011;18778;47.610;9.776;2024-01-25T09:56:06;3.70;;;3.40;;
7919;SDS011;18778;47.610;9.776;2024-01-25T09:58:37;3.63;;;3.17;;
7919;SDS011;18778;47.610;9.776;2024-01-25T10:01:07;3.47;;;3.27;;
7919;SDS011;18778;47.610;9.776;2024-01-25T10:03:35;3.60;;;3.30;;
7919;SDS011;18778;47.610;9.776;2024-01-25T10:06:01;3.93;;;3.37;;
7919;SDS011;18778;47.610;9.776;2024-01-25T10:08:28;3.77;;;3.47;;
7919;SDS011;18778;47.610;9.776;2024-01-25T10:10:54;3.43;;;3.10;;
7919;SDS011;18778;47.610;9.776;2024-01-25T10:13:20;3.90;;;2.97;;
7919;SDS011;18778;47.610;9.776;2024-01-25T10:15:45;3.70;;;2.93;;
7919;SDS011;18778;47.610;9.776;2024-01-25T10:18:12;3.67;;;2.80;;
7919;SDS011;18778;47.610;9.776;2024-01-25T10:20:44;3.47;;;2.60;;
7919;SDS011;18778;47.610;9.776;2024-01-25T10:23:10;2.77;;;2.53;;
7919;SDS011;18778;47.610;9.776;2024-01-25T10:25:36;4.23;;;3.07;;
7919;SDS011;18778;47.610;9.776;2024-01-25T10:28:05;3.73;;;3.30;;
7919;SDS011;18778;47.610;9.776;2024-01-25T10:30:32;3.27;;;3.07;;
7919;SDS011;18778;47.610;9.776;2024-01-25T10:32:59;3.97;;;3.13;;
7919;SDS011;18778;47.610;9.776;2024-01-25T10:35:25;3.17;;;2.83;;
7919;SDS011;18778;47.610;9.776;2024-01-25T10:37:51;3.40;;;3.10;;
7919;SDS011;18778;47.610;9.776;2024-01-25T10:40:18;4.93;;;3.40;;
7919;SDS011;18778;47.610;9.776;2024-01-25T10:42:44;10.90;;;6.57;;
7919;SDS011;18778;47.610;9.776;2024-01-25T10:45:10;9.33;;;6.13;;
7919;SDS011;18778;47.610;9.776;2024-01-25T10:47:36;4.43;;;4.03;;
7919;SDS011;18778;47.610;9.776;2024-01-25T10:50:02;6.27;;;4.60;;
7919;SDS011;18778;47.610;9.776;2024-01-25T10:52:29;2.50;;;2.30;;
7919;SDS011;18778;47.610;9.776;2024-01-25T10:54:56;3.97;;;3.10;;
7919;SDS011;18778;47.610;9.776;2024-01-25T10:57:21;2.90;;;2.70;;
7919;SDS011;18778;47.610;9.776;2024-01-25T10:59:48;2.57;;;2.37;;
7919;SDS011;18778;47.610;9.776;2024-01-25T11:02:14;3.47;;;3.00;;
7919;SDS011;18778;47.610;9.776;2024-01-25T11:04:51;3.67;;;3.47;;
7919;SDS011;18778;47.610;9.776;2024-01-25T11:07:20;3.20;;;2.90;;
7919;SDS011;18778;47.610;9.776;2024-01-25T11:09:46;2.87;;;2.67;;
7919;SDS011;18778;47.610;9.776;2024-01-25T11:12:17;3.27;;;3.00;;
7919;SDS011;18778;47.610;9.776;2024-01-25T11:14:44;3.20;;;2.37;;
7919;SDS011;18778;47.610;9.776;2024-01-25T11:17:43;3.03;;;2.60;;
7919;SDS011;18778;47.610;9.776;2024-01-25T11:20:02;4.70;;;4.00;;
7919;SDS011;18778;47.610;9.776;2024-01-25T11:22:34;4.13;;;3.70;;
7919;SDS011;18778;47.610;9.776;2024-01-25T11:25:10;3.93;;;3.63;;
7919;SDS011;18778;47.610;9.776;2024-01-25T11:27:37;3.30;;;3.00;;
7919;SDS011;18778;47.610;9.776;2024-01-25T11:30:03;9.47;;;6.80;;
7919;SDS011;18778;47.610;9.776;2024-01-25T11:32:33;4.87;;;3.67;;
7919;SDS011;18778;47.610;9.776;2024-01-25T11:34:59;4.10;;;3.80;;
7919;SDS011;18778;47.610;9.776;2024-01-25T11:37:24;3.23;;;3.03;;
7919;SDS011;18778;47.610;9.776;2024-01-25T11:39:50;3.23;;;3.03;;
7919;SDS011;18778;47.610;9.776;2024-01-25T11:42:17;3.07;;;2.87;;
7919;SDS011;18778;47.610;9.776;2024-01-25T11:44:43;3.60;;;3.30;;
7919;SDS011;18778;47.610;9.776;2024-01-25T11:47:08;3.30;;;3.10;;
7919;SDS011;18778;47.610;9.776;2024-01-25T11:49:34;10.80;;;7.73;;
7919;SDS011;18778;47.610;9.776;2024-01-25T11:52:00;3.80;;;2.20;;
7919;SDS011;18778;47.610;9.776;2024-01-25T11:54:27;1.37;;;1.00;;
7919;SDS011;18778;47.610;9.776;2024-01-25T11:56:52;5.20;;;3.47;;
7919;SDS011;18778;47.610;9.776;2024-01-25T11:59:18;4.60;;;4.10;;
7919;SDS011;18778;47.610;9.776;2024-01-25T12:01:44;6.17;;;4.40;;
7919;SDS011;18778;47.610;9.776;2024-01-25T12:04:13;5.50;;;4.90;;
7919;SDS011;18778;47.610;9.776;2024-01-25T12:06:39;9.57;;;6.83;;
7919;SDS011;18778;47.610;9.776;2024-01-25T12:09:05;1.77;;;1.67;;
7919;SDS011;18778;47.610;9.776;2024-01-25T12:11:33;2.27;;;2.13;;
7919;SDS011;18778;47.610;9.776;2024-01-25T12:13:59;1.90;;;1.80;;
7919;SDS011;18778;47.610;9.776;2024-01-25T12:16:24;2.50;;;2.27;;
7919;SDS011;18778;47.610;9.776;2024-01-25T12:18:50;1.90;;;1.80;;
7919;SDS011;18778;47.610;9.776;2024-01-25T12:21:15;1.20;;;1.10;;
7919;SDS011;18778;47.610;9.776;2024-01-25T12:23:42;1.17;;;1.17;;
7919;SDS011;18778;47.610;9.776;2024-01-25T12:26:09;1.40;;;1.30;;
7919;SDS011;18778;47.610;9.776;2024-01-25T12:28:36;1.00;;;1.00;;
7919;SDS011;18778;47.610;9.776;2024-01-25T12:31:03;1.30;;;1.20;;
7919;SDS011;18778;47.610;9.776;2024-01-25T12:33:29;2.30;;;2.10;;
7919;SDS011;18778;47.610;9.776;2024-01-25T12:35:56;2.07;;;1.87;;
7919;SDS011;18778;47.610;9.776;2024-01-25T12:38:22;1.70;;;1.60;;
7919;SDS011;18778;47.610;9.776;2024-01-25T12:40:48;1.30;;;1.20;;
7919;SDS011;18778;47.610;9.776;2024-01-25T12:43:17;1.87;;;1.77;;
7919;SDS011;18778;47.610;9.776;2024-01-25T12:45:44;1.50;;;1.50;;
7919;SDS011;18778;47.610;9.776;2024-01-25T12:48:10;1.20;;;1.10;;
7919;SDS011;18778;47.610;9.776;2024-01-25T12:50:36;1.60;;;1.50;;
7919;SDS011;18778;47.610;9.776;2024-01-25T12:53:02;1.13;;;1.10;;
7919;SDS011;18778;47.610;9.776;2024-01-25T12:55:28;4.80;;;4.30;;
7919;SDS011;18778;47.610;9.776;2024-01-25T12:57:54;1.00;;;1.00;;
7919;SDS011;18778;47.610;9.776;2024-01-25T13:00:21;2.17;;;1.97;;
7919;SDS011;18778;47.610;9.776;2024-01-25T13:02:47;2.40;;;2.30;;
7919;SDS011;18778;47.610;9.776;2024-01-25T13:05:13;1.90;;;1.80;;
7919;SDS011;18778;47.610;9.776;2024-01-25T13:07:39;2.60;;;2.40;;
7919;SDS011;18778;47.610;9.776;2024-01-25T13:10:05;2.47;;;2.03;;
7919;SDS011;18778;47.610;9.776;2024-01-25T13:12:31;1.97;;;1.33;;
7919;SDS011;18778;47.610;9.776;2024-01-25T13:14:56;1.37;;;1.20;;
7919;SDS011;18778;47.610;9.776;2024-01-25T13:17:22;1.97;;;1.70;;
7919;SDS011;18778;47.610;9.776;2024-01-25T13:19:49;1.40;;;1.40;;
7919;SDS011;18778;47.610;9.776;2024-01-25T13:22:14;3.43;;;2.67;;
7919;SDS011;18778;47.610;9.776;2024-01-25T13:24:42;4.93;;;3.77;;
7919;SDS011;18778;47.610;9.776;2024-01-25T13:27:08;3.20;;;2.90;;
7919;SDS011;18778;47.610;9.776;2024-01-25T13:29:34;5.83;;;3.47;;
7919;SDS011;18778;47.610;9.776;2024-01-25T13:31:59;1.73;;;1.63;;
7919;SDS011;18778;47.610;9.776;2024-01-25T13:34:25;3.50;;;3.30;;
7919;SDS011;18778;47.610;9.776;2024-01-25T13:36:50;3.13;;;2.93;;
7919;SDS011;18778;47.610;9.776;2024-01-25T13:39:16;3.50;;;3.20;;
7919;SDS011;18778;47.610;9.776;2024-01-25T13:41:42;2.77;;;2.63;;
7919;SDS011;18778;47.610;9.776;2024-01-25T13:44:07;4.80;;;4.50;;
7919;SDS011;18778;47.610;9.776;2024-01-25T13:46:33;3.07;;;2.93;;
7919;SDS011;18778;47.610;9.776;2024-01-25T13:48:58;2.20;;;2.10;;
7919;SDS011;18778;47.610;9.776;2024-01-25T13:51:24;2.83;;;2.63;;
7919;SDS011;18778;47.610;9.776;2024-01-25T13:53:49;2.07;;;1.97;;
7919;SDS011;18778;47.610;9.776;2024-01-25T13:56:15;4.30;;;4.00;;
7919;SDS011;18778;47.610;9.776;2024-01-25T13:58:41;3.60;;;3.40;;
7919;SDS011;18778;47.610;9.776;2024-01-25T14:01:07;3.27;;;3.07;;
7919;SDS011;18778;47.610;9.776;2024-01-25T14:03:33;3.23;;;2.97;;
7919;SDS011;18778;47.610;9.776;2024-01-25T14:05:59;2.80;;;2.60;;
7919;SDS011;18778;47.610;9.776;2024-01-25T14:08:29;4.60;;;4.30;;
7919;SDS011;18778;47.610;9.776;2024-01-25T14:10:54;5.30;;;4.90;;
7919;SDS011;18778;47.610;9.776;2024-01-25T14:13:20;3.90;;;3.60;;
7919;SDS011;18778;47.610;9.776;2024-01-25T14:15:45;4.70;;;4.30;;
7919;SDS011;18778;47.610;9.776;2024-01-25T14:18:11;3.93;;;3.63;;
7919;SDS011;18778;47.610;9.776;2024-01-25T14:20:37;3.93;;;3.67;;
7919;SDS011;18778;47.610;9.776;2024-01-25T14:23:02;4.20;;;3.90;;
7919;SDS011;18778;47.610;9.776;2024-01-25T14:25:28;9.10;;;8.30;;
7919;SDS011;18778;47.610;9.776;2024-01-25T14:27:54;5.27;;;4.77;;
7919;SDS011;18778;47.610;9.776;2024-01-25T14:30:19;3.30;;;3.10;;
7919;SDS011;18778;47.610;9.776;2024-01-25T14:32:45;2.30;;;2.20;;
7919;SDS011;18778;47.610;9.776;2024-01-25T14:35:12;1.90;;;1.80;;
7919;SDS011;18778;47.610;9.776;2024-01-25T14:37:37;1.83;;;1.57;;
7919;SDS011;18778;47.610;9.776;2024-01-25T14:40:03;1.40;;;1.40;;
7919;SDS011;18778;47.610;9.776;2024-01-25T14:42:29;1.50;;;1.50;;
7919;SDS011;18778;47.610;9.776;2024-01-25T14:44:55;1.80;;;1.70;;
7919;SDS011;18778;47.610;9.776;2024-01-25T14:47:20;1.47;;;1.47;;
7919;SDS011;18778;47.610;9.776;2024-01-25T14:49:48;1.30;;;1.30;;
7919;SDS011;18778;47.610;9.776;2024-01-25T14:52:14;1.20;;;1.20;;
7919;SDS011;18778;47.610;9.776;2024-01-25T14:54:40;1.20;;;1.10;;